TimeEDT,TemperatureF,Dew PointF,Humidity,Sea Level PressureIn,VisibilityMPH,Wind Direction,Wind SpeedMPH,Gust SpeedMPH,PrecipitationIn,Events,Conditions,WindDirDegrees,DateUTC
12:00 AM,64.4,60.8,88,29.68,4.0,SW,8.1,-,0.02,Rain,Light Rain,230,2013-06-02 04:00:00
12:30 AM,64.4,60.8,88,29.67,-9999.0,SW,5.8,-,0.03,,Overcast,220,2013-06-02 04:30:00
12:42 AM,64.4,60.8,88,29.67,-9999.0,SW,9.2,-,0.03,,Mostly Cloudy,220,2013-06-02 04:42:00
12:53 AM,64.0,61.0,90,29.66,-9999.0,SW,10.4,-,0.03,,Scattered Clouds,230,2013-06-02 04:53:00
1:53 AM,63.0,59.0,87,29.67,-9999.0,WSW,8.1,-,0.00,,Mostly Cloudy,240,2013-06-02 05:53:00
2:02 AM,62.6,59.0,88,29.68,-9999.0,WSW,8.1,-,N/A,,Mostly Cloudy,240,2013-06-02 06:02:00
2:10 AM,62.6,59.0,88,29.68,-9999.0,West,6.9,-,N/A,,Overcast,260,2013-06-02 06:10:00
2:53 AM,62.1,57.9,86,29.66,-9999.0,SW,6.9,-,0.00,,Mostly Cloudy,230,2013-06-02 06:53:00
3:16 AM,62.6,59.0,88,29.66,-9999.0,SW,8.1,-,N/A,,Overcast,230,2013-06-02 07:16:00
3:53 AM,63.0,60.1,90,29.65,-9999.0,WSW,16.1,20.7,0.00,Rain,Light Rain,240,2013-06-02 07:53:00
4:53 AM,61.0,57.9,90,29.66,-9999.0,WSW,15.0,-,0.02,Rain,Light Rain,240,2013-06-02 08:53:00
5:53 AM,59.0,57.0,93,29.68,4.0,West,12.7,-,0.00,Rain,Light Rain,260,2013-06-02 09:53:00
6:53 AM,59.0,55.0,87,29.71,5.0,West,11.5,-,0.00,,Overcast,260,2013-06-02 10:53:00
7:53 AM,57.9,55.0,90,29.75,2.0,WSW,15.0,-,N/A,,Overcast,250,2013-06-02 11:53:00
8:01 AM,57.2,55.4,94,29.76,0.8,West,15.0,-,N/A,,Overcast,260,2013-06-02 12:01:00
8:14 AM,57.2,53.6,88,29.76,0.5,West,17.3,-,N/A,Fog,Fog,270,2013-06-02 12:14:00
8:53 AM,55.0,53.1,93,29.79,0.8,West,12.7,-,N/A,,Overcast,270,2013-06-02 12:53:00
9:11 AM,53.6,51.8,94,29.80,4.0,WNW,15.0,-,N/A,,Overcast,300,2013-06-02 13:11:00
9:37 AM,53.6,48.2,82,29.83,10.0,NW,13.8,21.9,N/A,,Overcast,310,2013-06-02 13:37:00
9:53 AM,53.1,48.0,83,29.84,10.0,WNW,15.0,20.7,N/A,,Overcast,290,2013-06-02 13:53:00
10:53 AM,52.0,46.0,80,29.86,10.0,WNW,16.1,21.9,N/A,,Overcast,300,2013-06-02 14:53:00
11:05 AM,53.6,46.4,77,29.86,10.0,NW,13.8,-,N/A,,Overcast,310,2013-06-02 15:05:00
11:53 AM,54.0,46.0,75,29.87,10.0,NNW,13.8,-,N/A,,Overcast,330,2013-06-02 15:53:00
12:31 PM,55.4,46.4,72,29.89,10.0,NW,15.0,21.9,N/A,,Overcast,310,2013-06-02 16:31:00
12:53 PM,55.9,46.0,69,29.90,10.0,NW,12.7,-,N/A,,Overcast,310,2013-06-02 16:53:00
1:53 PM,55.9,45.0,67,29.92,10.0,NW,12.7,-,N/A,,Overcast,320,2013-06-02 17:53:00
2:53 PM,57.0,45.0,64,29.94,10.0,WNW,13.8,-,N/A,,Overcast,290,2013-06-02 18:53:00
3:53 PM,55.9,44.1,64,29.95,10.0,NW,12.7,-,N/A,,Overcast,320,2013-06-02 19:53:00
4:53 PM,57.0,44.1,62,29.96,10.0,WNW,11.5,-,N/A,,Mostly Cloudy,300,2013-06-02 20:53:00
5:53 PM,57.9,44.1,60,29.96,10.0,NW,8.1,-,N/A,,Mostly Cloudy,310,2013-06-02 21:53:00
6:16 PM,59.0,44.6,59,29.96,10.0,NNW,11.5,20.7,N/A,,Mostly Cloudy,340,2013-06-02 22:16:00
6:53 PM,57.0,43.0,59,29.97,10.0,North,9.2,-,N/A,,Scattered Clouds,350,2013-06-02 22:53:00
7:53 PM,55.0,42.1,62,29.99,10.0,North,10.4,-,N/A,,Mostly Cloudy,360,2013-06-02 23:53:00
8:53 PM,53.1,41.0,64,30.01,10.0,NNW,5.8,-,N/A,,Mostly Cloudy,330,2013-06-03 00:53:00
9:42 PM,51.8,39.2,62,30.00,10.0,North,9.2,-,N/A,,Mostly Cloudy,350,2013-06-03 01:42:00
9:53 PM,52.0,39.9,63,30.01,10.0,NNW,6.9,-,N/A,,Mostly Cloudy,340,2013-06-03 01:53:00
10:53 PM,50.0,39.0,66,30.04,10.0,NNW,10.4,-,N/A,,Mostly Cloudy,340,2013-06-03 02:53:00
11:03 PM,48.2,39.2,71,30.03,10.0,North,9.2,-,N/A,,Scattered Clouds,360,2013-06-03 03:03:00
11:53 PM,46.9,39.9,77,30.04,10.0,North,5.8,-,N/A,,Clear,10,2013-06-03 03:53:00